Hemlock, Michigan
Current Conditions -  °F | °C
As of 11:53 PM on Monday 20 Oct 2014 (Local Time) from KMBS Reporting Station
Overcast Overcast  
Wind Chill: 50°   Ceiling: 2900
Heat Index: 50°   Visibility: 10mi
Dew Point: 43°   Wind: 10mph
Humidity: 77%   Direction: 310°NW
Pressure: 29.91"   Gusts: NA
Location:  43.41°N, 84.23°W
Report Text: KMBS 210353Z 31009KT 10SM OVC029 10/06 A2991 RMK AO2 SLP130 T01000061
Loading
Personal Weather Stations






























Interactive Weather Map
Tropical Storm Tracking
New forecast layout! Learn more

10-Day Weather Forecast

Advertisements
Track Severe Weather on mobile